createdAt,value
2023-05-19T00:01:50.143Z,7.99
2023-05-19T00:04:52.821Z,8.03
2023-05-19T00:08:00.235Z,7.70
2023-05-19T00:11:03.352Z,7.84
2023-05-19T00:14:10.380Z,7.97
2023-05-19T00:17:13.060Z,7.93
2023-05-19T00:20:15.933Z,7.93
2023-05-19T00:23:18.325Z,8.01
2023-05-19T00:26:23.761Z,8.05
2023-05-19T00:29:35.316Z,8.14
2023-05-19T00:32:37.802Z,8.14
2023-05-19T00:35:40.884Z,8.14
2023-05-19T00:38:43.402Z,8.18
2023-05-19T00:41:45.868Z,8.08
2023-05-19T00:44:48.309Z,8.28
2023-05-19T00:47:50.916Z,8.25
2023-05-19T00:51:02.454Z,8.11
2023-05-19T00:54:08.454Z,8.26
2023-05-19T00:57:11.532Z,8.27
2023-05-19T01:00:14.720Z,8.24
2023-05-19T01:03:20.757Z,8.24
2023-05-19T01:06:23.464Z,8.23
2023-05-19T01:09:26.032Z,8.27
2023-05-19T01:12:28.581Z,8.21
2023-05-19T01:15:33.307Z,8.11
2023-05-19T01:18:47.560Z,8.21
2023-05-19T01:21:59.227Z,8.24
2023-05-19T01:25:13.239Z,8.29
2023-05-19T01:28:21.465Z,8.23
2023-05-19T01:31:25.334Z,8.15
2023-05-19T01:34:28.168Z,8.06
2023-05-19T01:37:31.108Z,8.22
2023-05-19T01:40:34.255Z,8.14
2023-05-19T01:43:36.990Z,8.16
2023-05-19T01:46:39.576Z,8.19
2023-05-19T01:49:42.176Z,8.10
2023-05-19T01:52:44.555Z,8.03
2023-05-19T01:55:52.685Z,7.88
2023-05-19T01:59:01.334Z,7.78
2023-05-19T02:02:21.945Z,7.77
2023-05-19T02:05:32.409Z,7.91
2023-05-19T02:08:45.323Z,7.98
2023-05-19T02:11:54.327Z,8.01
2023-05-19T02:15:15.552Z,8.00
2023-05-19T02:18:20.469Z,7.89
2023-05-19T02:21:26.620Z,8.02
2023-05-19T02:24:30.675Z,8.07
2023-05-19T02:27:38.528Z,8.08
2023-05-19T02:30:41.068Z,8.04
2023-05-19T02:33:46.382Z,8.16
2023-05-19T02:36:50.093Z,8.21
2023-05-19T02:39:52.629Z,8.22
2023-05-19T02:42:55.140Z,8.23
2023-05-19T02:45:58.292Z,8.17
2023-05-19T02:49:02.282Z,8.25
2023-05-19T02:52:06.156Z,8.29
2023-05-19T02:55:09.161Z,8.22
2023-05-19T02:58:11.717Z,8.20
2023-05-19T03:01:14.217Z,8.13
2023-05-19T03:04:20.203Z,8.06
2023-05-19T03:07:25.443Z,8.00
2023-05-19T03:10:28.218Z,8.05
2023-05-19T03:13:30.632Z,7.88
2023-05-19T03:16:34.205Z,7.92
2023-05-19T03:19:37.208Z,7.82
2023-05-19T03:22:39.612Z,8.13
2023-05-19T03:25:42.006Z,8.04
2023-05-19T03:28:44.482Z,8.04
2023-05-19T03:31:47.044Z,8.17
2023-05-19T03:34:51.556Z,8.28
2023-05-19T03:37:54.643Z,8.43
2023-05-19T03:40:57.337Z,8.32
2023-05-19T03:44:00.084Z,8.30
2023-05-19T03:47:02.596Z,8.29
2023-05-19T03:50:34.221Z,8.45
2023-05-19T03:53:48.760Z,8.64
2023-05-19T03:56:51.465Z,8.71
2023-05-19T03:59:53.828Z,8.82
2023-05-19T04:02:57.164Z,8.87
2023-05-19T04:05:59.650Z,8.92
2023-05-19T04:09:03.940Z,8.96
2023-05-19T04:12:06.386Z,9.11
2023-05-19T04:15:11.554Z,9.19
2023-05-19T04:18:14.056Z,9.17
2023-05-19T04:21:16.477Z,9.24
2023-05-19T04:24:18.803Z,9.24
2023-05-19T04:27:23.119Z,9.26
2023-05-19T04:30:25.758Z,9.36
2023-05-19T04:33:29.484Z,9.15
2023-05-19T04:36:31.964Z,9.16
2023-05-19T04:39:34.926Z,9.21
2023-05-19T04:42:37.271Z,9.16
2023-05-19T04:45:42.738Z,9.63
2023-05-19T04:48:47.797Z,9.52
2023-05-19T04:51:52.305Z,9.54
2023-05-19T04:55:00.072Z,9.59
2023-05-19T04:58:03.139Z,9.76
2023-05-19T05:01:05.963Z,9.86
2023-05-19T05:04:08.368Z,9.94
2023-05-19T05:07:11.432Z,10.08
2023-05-19T05:10:14.750Z,10.04
2023-05-19T05:13:17.754Z,10.16
2023-05-19T05:16:20.983Z,10.04
2023-05-19T05:19:23.834Z,10.43
2023-05-19T05:22:26.689Z,10.35
2023-05-19T05:25:30.257Z,10.51
2023-05-19T05:28:32.770Z,10.59
2023-05-19T05:31:35.522Z,10.67
2023-05-19T05:34:40.001Z,10.80
2023-05-19T05:37:42.293Z,10.88
2023-05-19T05:40:44.918Z,10.81
2023-05-19T05:43:47.724Z,10.93
2023-05-19T05:46:50.538Z,11.10
2023-05-19T05:49:53.689Z,11.19
2023-05-19T05:52:58.451Z,11.12
2023-05-19T05:56:02.558Z,11.23
2023-05-19T05:59:14.212Z,11.27
2023-05-19T06:02:21.052Z,11.23
2023-05-19T06:05:23.768Z,11.19
2023-05-19T06:08:26.506Z,11.20
2023-05-19T06:11:29.745Z,11.28
2023-05-19T06:14:34.241Z,11.30
2023-05-19T06:17:48.998Z,11.41
2023-05-19T06:20:51.505Z,11.41
2023-05-19T06:23:54.390Z,11.46
2023-05-19T06:26:56.882Z,11.47
2023-05-19T06:30:00.331Z,11.43
2023-05-19T06:33:06.421Z,11.41
2023-05-19T06:36:10.355Z,11.32
2023-05-19T06:39:14.530Z,11.22
2023-05-19T06:42:17.250Z,11.24
2023-05-19T06:45:42.540Z,11.32
2023-05-19T06:48:46.998Z,11.34
2023-05-19T06:51:54.084Z,11.45
2023-05-19T06:54:56.646Z,11.66
2023-05-19T06:57:59.200Z,11.68
2023-05-19T07:01:01.904Z,11.70
2023-05-19T07:04:10.167Z,11.87
2023-05-19T07:07:12.854Z,11.89
2023-05-19T07:10:15.611Z,11.86
2023-05-19T07:13:18.598Z,12.09
2023-05-19T07:16:22.362Z,12.17
2023-05-19T07:19:24.929Z,12.30
2023-05-19T07:22:30.240Z,12.34
2023-05-19T07:25:33.493Z,12.23
2023-05-19T07:28:36.160Z,12.33
2023-05-19T07:31:38.738Z,12.49
2023-05-19T07:34:41.645Z,12.54
2023-05-19T07:37:44.456Z,12.42
2023-05-19T07:40:47.425Z,12.66
2023-05-19T07:43:50.444Z,12.73
2023-05-19T07:46:53.680Z,12.79
2023-05-19T07:49:56.095Z,12.95
2023-05-19T07:52:58.566Z,13.02
2023-05-19T07:56:01.005Z,13.17
2023-05-19T07:59:04.314Z,13.24
2023-05-19T08:02:06.929Z,13.21
2023-05-19T08:05:09.924Z,13.27
2023-05-19T08:08:13.095Z,13.37
2023-05-19T08:11:15.591Z,13.39
2023-05-19T08:14:18.053Z,13.51
2023-05-19T08:17:20.478Z,13.65
2023-05-19T08:20:24.497Z,13.79
2023-05-19T08:23:27.137Z,13.83
2023-05-19T08:26:29.837Z,13.78
2023-05-19T08:29:32.319Z,13.70
2023-05-19T08:32:34.710Z,13.88
2023-05-19T08:35:37.387Z,13.86
2023-05-19T08:38:39.872Z,13.92
2023-05-19T08:41:42.255Z,13.91
2023-05-19T08:44:44.627Z,14.00
2023-05-19T08:47:47.817Z,14.01
2023-05-19T08:51:02.116Z,13.92
2023-05-19T08:54:15.909Z,14.02
2023-05-19T08:57:18.683Z,14.07
2023-05-19T09:00:21.367Z,14.19
2023-05-19T09:03:26.733Z,14.28
2023-05-19T09:06:32.386Z,14.15
2023-05-19T09:09:35.040Z,14.32
2023-05-19T09:12:38.078Z,14.45
2023-05-19T09:15:41.518Z,14.40
2023-05-19T09:18:57.492Z,14.26
2023-05-19T09:22:04.822Z,14.06
2023-05-19T09:25:07.870Z,14.10
2023-05-19T09:28:10.406Z,14.06
2023-05-19T09:31:13.109Z,13.92
2023-05-19T09:34:16.036Z,13.45
2023-05-19T09:37:18.742Z,13.36
2023-05-19T09:40:21.588Z,13.56
2023-05-19T09:43:24.195Z,13.79
2023-05-19T09:46:28.499Z,13.86
2023-05-19T09:49:31.491Z,14.08
2023-05-19T09:52:44.919Z,14.37
2023-05-19T09:55:47.399Z,14.54
2023-05-19T09:58:50.066Z,14.78
2023-05-19T10:02:00.181Z,14.55
2023-05-19T10:05:03.537Z,14.63
2023-05-19T10:08:10.550Z,14.41
2023-05-19T10:11:12.942Z,14.60
2023-05-19T10:14:16.223Z,14.23
2023-05-19T10:17:18.907Z,13.75
2023-05-19T10:20:21.743Z,14.02
2023-05-19T10:23:24.179Z,14.10
2023-05-19T10:26:27.051Z,13.94
2023-05-19T10:29:32.695Z,13.98
2023-05-19T10:32:35.318Z,13.89
2023-05-19T10:35:47.251Z,14.06
2023-05-19T10:38:57.441Z,13.92
2023-05-19T10:42:17.543Z,13.49
2023-05-19T10:45:24.891Z,13.57
2023-05-19T10:48:28.067Z,13.51
2023-05-19T10:51:34.312Z,13.49
2023-05-19T10:54:41.185Z,12.86
2023-05-19T10:57:57.120Z,12.43
2023-05-19T11:01:02.863Z,12.44
2023-05-19T11:04:08.047Z,12.84
2023-05-19T11:07:10.861Z,12.79
2023-05-19T11:10:13.684Z,12.50
2023-05-19T11:13:22.643Z,12.88
2023-05-19T11:16:37.476Z,12.61
2023-05-19T11:19:42.070Z,12.69
2023-05-19T11:23:02.457Z,12.46
2023-05-19T11:26:04.788Z,12.33
2023-05-19T11:29:07.349Z,11.90
2023-05-19T11:32:11.887Z,11.30
2023-05-19T11:35:15.812Z,11.28
2023-05-19T11:38:19.796Z,11.05
2023-05-19T11:41:23.245Z,10.97
2023-05-19T11:44:25.728Z,10.82
2023-05-19T11:47:28.958Z,10.87
2023-05-19T11:50:37.015Z,10.96
2023-05-19T11:53:40.364Z,11.15
2023-05-19T11:56:43.972Z,11.21
2023-05-19T11:59:48.394Z,11.28
2023-05-19T12:02:50.822Z,11.38
2023-05-19T12:05:54.316Z,11.38
2023-05-19T12:08:56.965Z,11.86
2023-05-19T12:11:59.549Z,12.07
2023-05-19T12:15:04.157Z,12.20
2023-05-19T12:18:06.918Z,12.19
2023-05-19T12:21:09.568Z,12.12
2023-05-19T12:24:12.008Z,12.25
2023-05-19T12:27:24.175Z,12.25
2023-05-19T12:30:31.292Z,12.05
2023-05-19T12:33:35.740Z,12.06
2023-05-19T12:36:38.467Z,12.10
2023-05-19T12:39:42.254Z,12.00
2023-05-19T12:42:48.871Z,11.90
2023-05-19T12:45:51.468Z,11.98
2023-05-19T12:49:01.196Z,12.09
2023-05-19T12:52:07.172Z,12.16
2023-05-19T12:55:14.466Z,12.02
2023-05-19T12:58:17.136Z,12.03
2023-05-19T13:01:19.844Z,11.83
2023-05-19T13:04:22.747Z,11.96
2023-05-19T13:07:25.534Z,11.94
2023-05-19T13:10:29.416Z,11.81
2023-05-19T13:13:32.033Z,11.92
2023-05-19T13:16:34.829Z,11.98
2023-05-19T13:19:37.284Z,12.09
2023-05-19T13:22:39.756Z,12.24
2023-05-19T13:25:43.096Z,12.36
2023-05-19T13:28:45.591Z,12.35
2023-05-19T13:31:48.091Z,12.43
2023-05-19T13:34:50.582Z,12.27
2023-05-19T13:37:53.079Z,12.41
2023-05-19T13:40:55.538Z,12.38
2023-05-19T13:44:01.902Z,12.34
2023-05-19T13:47:04.556Z,12.17
2023-05-19T13:50:07.623Z,12.13
2023-05-19T13:53:11.603Z,12.19
2023-05-19T13:56:14.133Z,12.06
2023-05-19T13:59:21.663Z,12.06
2023-05-19T14:02:24.082Z,12.06
2023-05-19T14:05:28.544Z,12.01
2023-05-19T14:08:31.033Z,12.17
2023-05-19T14:11:33.752Z,12.12
2023-05-19T14:14:36.477Z,12.31
2023-05-19T14:17:39.151Z,12.38
2023-05-19T14:20:41.647Z,12.62
2023-05-19T14:23:44.085Z,12.79
2023-05-19T14:26:46.692Z,13.08
2023-05-19T14:29:50.231Z,12.90
2023-05-19T14:32:53.036Z,13.08
2023-05-19T14:35:58.956Z,13.04
2023-05-19T14:39:02.320Z,12.92
2023-05-19T14:42:04.761Z,12.73
2023-05-19T14:45:07.700Z,12.41
2023-05-19T14:48:12.993Z,12.69
2023-05-19T14:51:15.659Z,12.71
2023-05-19T14:54:18.038Z,12.90
2023-05-19T14:57:20.546Z,13.20
2023-05-19T15:00:22.907Z,13.25
2023-05-19T15:03:25.441Z,13.24
2023-05-19T15:06:27.870Z,13.09
2023-05-19T15:09:30.263Z,12.99
2023-05-19T15:12:32.584Z,13.07
2023-05-19T15:15:35.107Z,12.96
2023-05-19T15:18:38.039Z,13.09
2023-05-19T15:21:40.623Z,12.74
2023-05-19T15:24:43.150Z,12.20
2023-05-19T15:27:45.863Z,12.32
2023-05-19T15:30:49.129Z,12.50
2023-05-19T15:33:51.498Z,12.35
2023-05-19T15:36:54.030Z,12.20
2023-05-19T15:39:56.552Z,12.14
2023-05-19T15:42:59.052Z,12.14
2023-05-19T15:46:01.565Z,12.03
2023-05-19T15:49:04.358Z,12.07
2023-05-19T15:52:07.125Z,12.25
2023-05-19T15:55:10.226Z,12.03
2023-05-19T15:58:13.912Z,11.85
2023-05-19T16:01:17.135Z,12.15
2023-05-19T16:04:19.734Z,12.31
2023-05-19T16:07:23.867Z,12.13
2023-05-19T16:10:26.316Z,12.31
2023-05-19T16:13:30.531Z,12.35
2023-05-19T16:16:32.960Z,12.42
2023-05-19T16:19:35.627Z,12.42
2023-05-19T16:22:38.005Z,12.43
2023-05-19T16:25:41.549Z,12.41
2023-05-19T16:28:43.923Z,12.36
2023-05-19T16:31:46.423Z,12.37
2023-05-19T16:34:48.996Z,12.18
2023-05-19T16:37:51.382Z,12.10
2023-05-19T16:40:53.929Z,12.27
2023-05-19T16:43:56.416Z,12.23
2023-05-19T16:46:58.902Z,12.24
2023-05-19T16:50:01.297Z,12.11
2023-05-19T16:53:03.758Z,12.12
2023-05-19T16:56:08.161Z,12.06
2023-05-19T16:59:10.607Z,12.07
2023-05-19T17:02:13.337Z,12.16
2023-05-19T17:05:16.150Z,12.15
2023-05-19T17:08:18.606Z,12.20
2023-05-19T17:11:21.628Z,12.02
2023-05-19T17:14:24.038Z,12.03
2023-05-19T17:17:26.579Z,11.93
2023-05-19T17:20:29.194Z,11.97
2023-05-19T17:23:32.455Z,12.13
2023-05-19T17:26:34.902Z,12.23
2023-05-19T17:29:37.316Z,12.10
2023-05-19T17:32:40.015Z,12.07
2023-05-19T17:35:42.592Z,11.94
2023-05-19T17:38:44.964Z,12.01
2023-05-19T17:41:47.462Z,12.12
2023-05-19T17:44:49.805Z,12.14
2023-05-19T17:47:52.282Z,12.10
2023-05-19T17:50:54.983Z,12.01
2023-05-19T17:53:57.507Z,11.94
2023-05-19T17:57:02.186Z,12.00
2023-05-19T18:00:05.671Z,12.06
2023-05-19T18:03:08.718Z,11.95
2023-05-19T18:06:11.857Z,11.87
2023-05-19T18:09:15.214Z,11.84
2023-05-19T18:12:17.778Z,11.87
2023-05-19T18:15:20.126Z,11.86
2023-05-19T18:18:22.570Z,11.81
2023-05-19T18:21:25.371Z,11.69
2023-05-19T18:24:28.184Z,11.73
2023-05-19T18:27:31.581Z,11.48
2023-05-19T18:30:34.185Z,11.40
2023-05-19T18:33:36.818Z,11.40
2023-05-19T18:36:39.217Z,11.43
2023-05-19T18:39:41.591Z,11.31
2023-05-19T18:42:44.265Z,11.11
2023-05-19T18:45:49.712Z,11.13
2023-05-19T18:48:52.162Z,11.14
2023-05-19T18:51:54.588Z,11.16
2023-05-19T18:54:57.060Z,11.16
2023-05-19T18:57:59.406Z,11.09
2023-05-19T19:01:01.910Z,11.14
2023-05-19T19:04:04.617Z,11.25
2023-05-19T19:07:07.125Z,11.21
2023-05-19T19:10:09.843Z,11.21
2023-05-19T19:13:12.205Z,11.20
2023-05-19T19:16:14.626Z,11.18
2023-05-19T19:19:18.699Z,11.21
2023-05-19T19:22:21.389Z,11.22
2023-05-19T19:25:23.912Z,11.27
2023-05-19T19:28:26.659Z,11.14
2023-05-19T19:31:29.196Z,11.15
2023-05-19T19:34:31.601Z,11.13
2023-05-19T19:37:34.331Z,11.00
2023-05-19T19:40:36.903Z,10.93
2023-05-19T19:43:39.406Z,10.96
2023-05-19T19:46:41.981Z,11.03
2023-05-19T19:49:45.876Z,11.13
2023-05-19T19:52:48.488Z,11.07
2023-05-19T19:56:01.359Z,10.77
2023-05-19T19:59:03.793Z,11.04
2023-05-19T20:02:06.257Z,11.05
2023-05-19T20:05:09.291Z,10.71
2023-05-19T20:08:13.461Z,11.06
2023-05-19T20:11:16.720Z,11.07
2023-05-19T20:14:19.234Z,10.85
2023-05-19T20:17:21.692Z,10.96
2023-05-19T20:20:24.122Z,11.04
2023-05-19T20:23:26.464Z,10.99
2023-05-19T20:26:29.514Z,11.02
2023-05-19T20:29:32.334Z,10.84
2023-05-19T20:32:34.803Z,10.95
2023-05-19T20:35:37.204Z,11.02
2023-05-19T20:38:39.560Z,11.05
2023-05-19T20:41:41.999Z,10.95
2023-05-19T20:44:44.419Z,10.93
2023-05-19T20:47:46.948Z,11.04
2023-05-19T20:50:49.443Z,11.06
2023-05-19T20:53:52.302Z,11.00
2023-05-19T20:56:54.798Z,11.05
2023-05-19T20:59:57.257Z,10.85
2023-05-19T21:02:59.778Z,11.01
2023-05-19T21:06:02.433Z,11.02
2023-05-19T21:09:07.056Z,10.99
2023-05-19T21:12:12.089Z,10.92
2023-05-19T21:15:14.622Z,11.01
2023-05-19T21:18:16.964Z,10.88
2023-05-19T21:21:19.412Z,10.90
2023-05-19T21:24:21.778Z,10.92
2023-05-19T21:27:24.215Z,10.89
2023-05-19T21:30:26.595Z,10.97
2023-05-19T21:33:28.968Z,11.04
2023-05-19T21:36:31.906Z,10.99
2023-05-19T21:39:34.322Z,10.97
2023-05-19T21:42:36.771Z,11.05
2023-05-19T21:45:39.351Z,11.04
2023-05-19T21:48:41.684Z,11.04
2023-05-19T21:51:44.080Z,11.01
2023-05-19T21:54:46.498Z,10.96
2023-05-19T21:57:48.855Z,10.96
2023-05-19T22:00:54.813Z,10.94
2023-05-19T22:03:57.261Z,10.94
2023-05-19T22:06:59.942Z,10.90
2023-05-19T22:10:02.840Z,10.95
2023-05-19T22:13:05.594Z,10.88
2023-05-19T22:16:08.705Z,10.94
2023-05-19T22:19:12.148Z,10.89
2023-05-19T22:22:14.897Z,10.97
2023-05-19T22:25:17.403Z,10.95
2023-05-19T22:28:19.818Z,10.98
2023-05-19T22:31:22.475Z,11.03
2023-05-19T22:34:27.731Z,11.02
2023-05-19T22:37:30.292Z,10.96
2023-05-19T22:40:32.841Z,11.00
2023-05-19T22:43:35.356Z,10.83
2023-05-19T22:46:37.720Z,10.95
2023-05-19T22:49:43.533Z,10.94
2023-05-19T22:52:45.974Z,10.96
2023-05-19T22:55:48.447Z,11.06
2023-05-19T22:58:51.022Z,10.94
2023-05-19T23:01:53.456Z,11.00
2023-05-19T23:04:55.782Z,10.97
2023-05-19T23:08:01.174Z,10.87
2023-05-19T23:11:03.457Z,11.05
2023-05-19T23:14:05.832Z,10.96
2023-05-19T23:17:08.486Z,10.78
2023-05-19T23:20:11.932Z,10.85
2023-05-19T23:23:14.460Z,10.88
2023-05-19T23:26:16.937Z,10.89
2023-05-19T23:29:19.372Z,10.82
2023-05-19T23:32:21.817Z,10.91
2023-05-19T23:35:24.191Z,10.84
2023-05-19T23:38:27.903Z,10.96
2023-05-19T23:41:30.253Z,11.04
2023-05-19T23:44:32.715Z,10.94
2023-05-19T23:47:35.197Z,10.95
2023-05-19T23:50:37.605Z,10.91
2023-05-19T23:53:39.999Z,10.91
2023-05-19T23:56:42.485Z,10.90
2023-05-19T23:59:45.085Z,10.94
